Macune, Texas
Current Conditions -  °F | °C
As of 11:35 AM on Saturday 25 Oct 2014 (Local Time) from KOCH Reporting Station
Clear Clear  
Wind Chill: 73°   Ceiling: Unl
Heat Index: 73°   Visibility: 10mi
Dew Point: 59°   Wind: 7mph
Humidity: 61%   Direction: 240°WSW
Pressure: 30.19"   Gusts: NA
Location:  31.516°N, 94.1687°W
Report Text: KOCH 251635Z AUTO 24006KT 10SM CLR 23/15 A3019 RMK AO1
Loading
Personal Weather Stations






























Interactive Weather Map
Tropical Storm Tracking
New forecast layout! Learn more

10-Day Weather Forecast

Advertisements
Track Severe Weather on mobile